createdAt,value
2017-12-22T00:00:04.982Z,39.25
2017-12-22T00:01:07.518Z,39.75
2017-12-22T00:02:09.974Z,32.30
2017-12-22T00:03:12.438Z,38.83
2017-12-22T00:04:14.906Z,33.50
2017-12-22T00:05:17.369Z,33.55
2017-12-22T00:06:20.627Z,35.80
2017-12-22T00:07:23.086Z,35.88
2017-12-22T00:08:25.533Z,37.72
2017-12-22T00:09:27.982Z,34.45
2017-12-22T00:10:31.260Z,34.70
2017-12-22T00:11:33.747Z,32.10
2017-12-22T00:12:36.970Z,33.17
2017-12-22T00:13:39.437Z,34.10
2017-12-22T00:14:41.916Z,41.53
2017-12-22T00:15:48.226Z,39.88
2017-12-22T00:16:50.709Z,31.02
2017-12-22T00:17:53.181Z,33.33
2017-12-22T00:18:55.657Z,29.70
2017-12-22T00:19:58.114Z,29.42
2017-12-22T00:21:00.569Z,34.08
2017-12-22T00:22:03.830Z,26.83
2017-12-22T00:23:07.073Z,36.25
2017-12-22T00:24:09.546Z,27.62
2017-12-22T00:25:12.009Z,32.78
2017-12-22T00:26:15.261Z,30.58
2017-12-22T00:27:18.473Z,29.95
2017-12-22T00:28:21.020Z,27.37
2017-12-22T00:29:24.278Z,30.75
2017-12-22T00:30:26.762Z,29.25
2017-12-22T00:31:29.221Z,27.65
2017-12-22T00:32:31.705Z,28.15
2017-12-22T00:33:34.179Z,32.63
2017-12-22T00:34:37.504Z,32.03
2017-12-22T00:35:40.755Z,32.90
2017-12-22T00:36:43.989Z,32.53
2017-12-22T00:37:46.544Z,33.15
2017-12-22T00:38:49.032Z,27.00
2017-12-22T00:39:51.493Z,29.85
2017-12-22T00:40:54.000Z,24.23
2017-12-22T00:41:57.221Z,25.23
2017-12-22T00:43:00.463Z,26.42
2017-12-22T00:44:02.925Z,25.45
2017-12-22T00:45:05.378Z,24.48
2017-12-22T00:46:07.858Z,24.27
2017-12-22T00:47:10.322Z,21.58
2017-12-22T00:48:12.769Z,25.67
2017-12-22T00:49:15.288Z,24.80
2017-12-22T00:50:17.752Z,23.90
2017-12-22T00:51:20.988Z,32.67
2017-12-22T00:52:24.225Z,20.42
2017-12-22T00:53:26.683Z,25.25
2017-12-22T00:54:29.169Z,21.17
2017-12-22T00:55:32.424Z,24.98
2017-12-22T00:56:35.631Z,23.62
2017-12-22T00:57:38.099Z,24.25
2017-12-22T00:58:41.323Z,26.55
2017-12-22T00:59:43.770Z,20.08
2017-12-22T01:00:46.261Z,23.60
2017-12-22T01:01:48.700Z,27.85
2017-12-22T01:02:51.946Z,19.50
2017-12-22T01:03:54.452Z,20.62
2017-12-22T01:04:56.874Z,20.52
2017-12-22T01:05:59.353Z,22.25
2017-12-22T01:07:01.820Z,20.05
2017-12-22T01:08:04.309Z,23.10
2017-12-22T01:09:06.766Z,20.55
2017-12-22T01:10:09.235Z,17.85
2017-12-22T01:11:11.686Z,19.37
2017-12-22T01:12:14.159Z,19.37
2017-12-22T01:13:17.410Z,21.45
2017-12-22T01:14:20.677Z,17.30
2017-12-22T01:15:28.800Z,23.35
2017-12-22T01:16:37.697Z,22.33
2017-12-22T01:17:45.813Z,21.00
2017-12-22T01:18:53.825Z,19.02
2017-12-22T01:19:56.286Z,18.65
2017-12-22T01:20:58.799Z,22.42
2017-12-22T01:22:01.256Z,15.25
2017-12-22T01:23:04.536Z,20.75
2017-12-22T01:24:07.003Z,16.52
2017-12-22T01:25:09.443Z,21.17
2017-12-22T01:26:12.694Z,15.40
2017-12-22T01:27:15.908Z,20.50
2017-12-22T01:28:18.389Z,20.05
2017-12-22T01:29:20.843Z,21.48
2017-12-22T01:30:23.321Z,16.92
2017-12-22T01:31:25.807Z,21.67
2017-12-22T01:32:28.272Z,19.35
2017-12-22T01:33:30.714Z,15.70
2017-12-22T01:34:33.202Z,20.67
2017-12-22T01:35:36.436Z,16.60
2017-12-22T01:36:38.885Z,21.20
2017-12-22T01:37:41.360Z,23.58
2017-12-22T01:38:43.814Z,19.23
2017-12-22T01:39:47.035Z,22.27
2017-12-22T01:40:49.496Z,20.67
2017-12-22T01:41:51.946Z,22.42
2017-12-22T01:42:54.426Z,21.40
2017-12-22T01:43:56.870Z,23.15
2017-12-22T01:44:59.328Z,23.83
2017-12-22T01:46:01.794Z,18.87
2017-12-22T01:47:04.252Z,26.08
2017-12-22T01:48:06.739Z,21.37
2017-12-22T01:49:09.215Z,18.37
2017-12-22T01:50:11.662Z,18.42
2017-12-22T01:51:14.135Z,19.92
2017-12-22T01:52:17.361Z,20.88
2017-12-22T01:53:20.658Z,23.12
2017-12-22T01:54:23.129Z,20.65
2017-12-22T01:55:25.592Z,21.15
2017-12-22T01:56:28.057Z,18.98
2017-12-22T01:57:30.519Z,19.25
2017-12-22T01:58:33.797Z,26.33
2017-12-22T01:59:36.297Z,19.17
2017-12-22T02:00:38.756Z,22.00
2017-12-22T02:01:41.220Z,23.00
2017-12-22T02:02:44.428Z,20.33
2017-12-22T02:03:46.923Z,19.85
2017-12-22T02:04:49.393Z,19.55
2017-12-22T02:05:51.860Z,21.55
2017-12-22T02:06:54.321Z,20.42
2017-12-22T02:07:56.837Z,21.00
2017-12-22T02:08:59.270Z,20.65
2017-12-22T02:10:01.751Z,20.40
2017-12-22T02:11:04.986Z,22.48
2017-12-22T02:12:08.206Z,18.90
2017-12-22T02:13:10.677Z,17.67
2017-12-22T02:14:13.155Z,20.88
2017-12-22T02:15:15.629Z,17.33
2017-12-22T02:16:18.109Z,15.93
2017-12-22T02:17:20.645Z,18.92
2017-12-22T02:18:23.128Z,17.50
2017-12-22T02:19:25.583Z,18.85
2017-12-22T02:20:28.478Z,20.58
2017-12-22T02:21:30.931Z,20.80
2017-12-22T02:22:33.406Z,21.30
2017-12-22T02:23:35.851Z,17.90
2017-12-22T02:24:38.301Z,22.80
2017-12-22T02:25:40.771Z,20.40
2017-12-22T02:26:43.983Z,17.85
2017-12-22T02:27:46.465Z,20.62
2017-12-22T02:28:48.953Z,26.50
2017-12-22T02:29:52.178Z,23.55
2017-12-22T02:30:54.658Z,23.48
2017-12-22T02:31:57.115Z,22.40
2017-12-22T02:32:59.569Z,23.67
2017-12-22T02:34:02.828Z,19.80
2017-12-22T02:35:05.326Z,18.15
2017-12-22T02:36:08.561Z,19.08
2017-12-22T02:37:11.030Z,19.92
2017-12-22T02:38:13.491Z,22.02
2017-12-22T02:39:15.979Z,23.05
2017-12-22T02:40:18.466Z,23.45
2017-12-22T02:41:21.683Z,21.58
2017-12-22T02:42:24.138Z,22.98
2017-12-22T02:43:27.371Z,22.87
2017-12-22T02:44:29.834Z,23.50
2017-12-22T02:45:32.321Z,23.52
2017-12-22T02:46:35.583Z,22.90
2017-12-22T02:47:38.818Z,20.70
2017-12-22T02:48:42.051Z,26.15
2017-12-22T02:49:45.286Z,21.90
2017-12-22T02:50:47.749Z,24.23
2017-12-22T02:51:50.245Z,20.23
2017-12-22T02:52:52.694Z,22.10
2017-12-22T02:53:55.153Z,23.75
2017-12-22T02:54:57.618Z,23.48
2017-12-22T02:56:00.853Z,22.98
2017-12-22T02:57:03.357Z,25.00
2017-12-22T02:58:05.814Z,23.17
2017-12-22T02:59:09.047Z,26.80
2017-12-22T03:00:11.514Z,25.20
2017-12-22T03:01:13.977Z,21.60
2017-12-22T03:02:16.463Z,22.90
2017-12-22T03:03:18.921Z,22.65
2017-12-22T03:04:21.374Z,21.42
2017-12-22T03:05:24.619Z,22.95
2017-12-22T03:06:27.839Z,22.13
2017-12-22T03:07:30.308Z,22.20
2017-12-22T03:08:32.781Z,21.45
2017-12-22T03:09:35.235Z,21.00
2017-12-22T03:10:38.461Z,25.20
2017-12-22T03:11:40.954Z,20.85
2017-12-22T03:12:43.446Z,19.17
2017-12-22T03:13:45.938Z,19.48
2017-12-22T03:14:48.398Z,19.35
2017-12-22T03:15:50.866Z,21.92
2017-12-22T03:16:53.329Z,20.58
2017-12-22T03:17:56.554Z,19.25
2017-12-22T03:18:59.045Z,17.27
2017-12-22T03:20:01.498Z,25.50
2017-12-22T03:21:03.985Z,20.10
2017-12-22T03:22:06.439Z,23.23
2017-12-22T03:23:08.909Z,20.90
2017-12-22T03:24:12.149Z,23.38
2017-12-22T03:25:15.372Z,25.17
2017-12-22T03:26:18.605Z,25.58
2017-12-22T03:27:21.066Z,22.73
2017-12-22T03:28:23.545Z,22.27
2017-12-22T03:29:25.996Z,22.65
2017-12-22T03:30:29.220Z,26.00
2017-12-22T03:31:31.690Z,25.45
2017-12-22T03:32:34.185Z,23.10
2017-12-22T03:33:37.403Z,26.02
2017-12-22T03:34:39.855Z,20.10
2017-12-22T03:35:43.096Z,22.27
2017-12-22T03:36:46.343Z,24.05
2017-12-22T03:37:49.567Z,22.98
2017-12-22T03:38:52.029Z,25.80
2017-12-22T03:39:54.483Z,23.38
2017-12-22T03:40:56.997Z,24.83
2017-12-22T03:41:59.483Z,25.90
2017-12-22T03:43:02.726Z,22.20
2017-12-22T03:44:05.954Z,26.83
2017-12-22T03:45:09.175Z,22.48
2017-12-22T03:46:11.632Z,23.83
2017-12-22T03:47:14.880Z,20.95
2017-12-22T03:48:18.110Z,24.02
2017-12-22T03:49:21.345Z,21.70
2017-12-22T03:50:24.569Z,26.45
2017-12-22T03:51:27.063Z,28.15
2017-12-22T03:52:29.533Z,23.70
2017-12-22T03:53:31.997Z,22.85
2017-12-22T03:54:34.478Z,25.77
2017-12-22T03:55:36.926Z,25.60
2017-12-22T03:56:40.154Z,27.87
2017-12-22T03:57:42.635Z,22.02
2017-12-22T03:58:45.083Z,26.05
2017-12-22T03:59:47.602Z,25.23
2017-12-22T04:00:50.091Z,24.02
2017-12-22T04:01:52.545Z,25.40
2017-12-22T04:02:55.022Z,27.13
2017-12-22T04:03:57.529Z,26.35
2017-12-22T04:05:00.765Z,28.60
2017-12-22T04:06:03.235Z,25.12
2017-12-22T04:07:05.698Z,25.58
2017-12-22T04:08:08.200Z,24.50
2017-12-22T04:09:10.709Z,26.27
2017-12-22T04:10:13.169Z,25.75
2017-12-22T04:11:15.656Z,26.80
2017-12-22T04:12:18.118Z,27.92
2017-12-22T04:13:20.623Z,25.70
2017-12-22T04:14:23.170Z,26.02
2017-12-22T04:15:25.618Z,25.27
2017-12-22T04:16:28.170Z,23.65
2017-12-22T04:17:30.625Z,29.12
2017-12-22T04:18:33.101Z,25.12
2017-12-22T04:19:36.372Z,25.88
2017-12-22T04:20:38.849Z,28.08
2017-12-22T04:21:41.309Z,27.25
2017-12-22T04:22:43.765Z,27.83
2017-12-22T04:23:46.230Z,26.87
2017-12-22T04:24:48.742Z,26.40
2017-12-22T04:25:51.218Z,27.30
2017-12-22T04:26:53.681Z,24.52
2017-12-22T04:27:56.147Z,26.75
2017-12-22T04:28:59.377Z,32.35
2017-12-22T04:30:02.622Z,27.77
2017-12-22T04:31:05.845Z,28.00
2017-12-22T04:32:08.421Z,29.60
2017-12-22T04:33:10.880Z,27.55
2017-12-22T04:34:13.343Z,24.35
2017-12-22T04:35:16.577Z,26.00
2017-12-22T04:36:19.050Z,27.27
2017-12-22T04:37:21.512Z,30.15
2017-12-22T04:38:23.957Z,27.37
2017-12-22T04:39:27.198Z,25.90
2017-12-22T04:40:30.468Z,30.27
2017-12-22T04:41:32.958Z,25.05
2017-12-22T04:42:35.415Z,26.67
2017-12-22T04:43:37.871Z,25.95
2017-12-22T04:44:40.341Z,25.60
2017-12-22T04:45:43.616Z,29.12
2017-12-22T04:46:46.084Z,30.20
2017-12-22T04:47:48.576Z,29.48
2017-12-22T04:48:51.041Z,25.05
2017-12-22T04:49:53.508Z,28.73
2017-12-22T04:50:55.974Z,28.90
2017-12-22T04:51:58.430Z,30.48
2017-12-22T04:53:01.730Z,23.87
2017-12-22T04:54:04.203Z,25.33
2017-12-22T04:55:06.688Z,22.80
2017-12-22T04:56:09.201Z,27.73
2017-12-22T04:57:11.675Z,23.20
2017-12-22T04:58:14.941Z,25.88
2017-12-22T04:59:17.413Z,27.65
2017-12-22T05:00:19.882Z,21.90
2017-12-22T05:01:22.387Z,21.70
2017-12-22T05:02:24.837Z,26.12
2017-12-22T05:03:27.317Z,19.23
2017-12-22T05:04:29.773Z,21.75
2017-12-22T05:05:33.010Z,20.12
2017-12-22T05:06:36.230Z,26.55
2017-12-22T05:07:38.696Z,22.10
2017-12-22T05:08:41.173Z,20.23
2017-12-22T05:09:43.641Z,23.42
2017-12-22T05:10:46.106Z,24.25
2017-12-22T05:11:48.574Z,19.08
2017-12-22T05:12:51.816Z,27.05
2017-12-22T05:13:55.068Z,23.10
2017-12-22T05:14:58.298Z,19.83
2017-12-22T05:16:01.502Z,19.12
2017-12-22T05:17:03.958Z,25.17
2017-12-22T05:18:06.418Z,21.33
2017-12-22T05:19:08.894Z,25.62
2017-12-22T05:20:11.363Z,22.42
2017-12-22T05:21:13.822Z,21.30
2017-12-22T05:22:16.277Z,25.77
2017-12-22T05:23:18.749Z,22.15
2017-12-22T05:24:21.219Z,27.25
2017-12-22T05:25:23.689Z,23.92
2017-12-22T05:26:26.140Z,19.67
2017-12-22T05:27:28.609Z,22.30
2017-12-22T05:28:31.825Z,21.95
2017-12-22T05:29:34.310Z,22.20
2017-12-22T05:30:36.781Z,22.02
2017-12-22T05:31:39.265Z,24.58
2017-12-22T05:32:41.726Z,22.30
2017-12-22T05:33:44.193Z,23.95
2017-12-22T05:34:48.213Z,19.30
2017-12-22T05:35:50.681Z,23.33
2017-12-22T05:36:53.142Z,21.55
2017-12-22T05:37:55.611Z,21.45
2017-12-22T05:38:58.920Z,25.98
2017-12-22T05:40:01.385Z,25.30
2017-12-22T05:41:04.634Z,23.60
2017-12-22T05:42:07.876Z,23.55
2017-12-22T05:43:11.083Z,25.17
2017-12-22T05:44:13.545Z,25.42
2017-12-22T05:45:16.029Z,26.50
2017-12-22T05:46:18.529Z,21.52
2017-12-22T05:47:20.994Z,20.77
2017-12-22T05:48:23.455Z,24.30
2017-12-22T05:49:25.921Z,22.37
2017-12-22T05:50:28.392Z,25.17
2017-12-22T05:51:31.614Z,20.73
2017-12-22T05:52:34.846Z,25.08
2017-12-22T05:53:37.342Z,22.73
2017-12-22T05:54:39.809Z,20.80
2017-12-22T05:55:43.025Z,22.17
2017-12-22T05:56:45.523Z,21.98
2017-12-22T05:57:47.995Z,21.15
2017-12-22T05:58:50.453Z,19.77
2017-12-22T05:59:52.953Z,21.65
2017-12-22T06:00:56.201Z,26.00
2017-12-22T06:01:59.432Z,19.08
2017-12-22T06:03:01.911Z,23.35
2017-12-22T06:04:04.366Z,19.42
2017-12-22T06:05:06.833Z,22.33
2017-12-22T06:06:09.299Z,19.67
2017-12-22T06:07:11.769Z,21.95
2017-12-22T06:08:15.044Z,25.45
2017-12-22T06:09:17.497Z,21.42
2017-12-22T06:10:19.975Z,22.15
2017-12-22T06:11:22.447Z,22.77
2017-12-22T06:12:24.895Z,21.25
2017-12-22T06:13:28.114Z,22.30
2017-12-22T06:14:30.604Z,23.38
2017-12-22T06:15:33.096Z,21.45
2017-12-22T06:16:36.313Z,23.83
2017-12-22T06:17:39.550Z,21.08
2017-12-22T06:18:42.020Z,21.80
2017-12-22T06:19:45.550Z,20.83
2017-12-22T06:20:48.808Z,22.98
2017-12-22T06:21:51.280Z,23.60
2017-12-22T06:22:53.756Z,18.90
2017-12-22T06:23:56.980Z,25.23
2017-12-22T06:25:00.199Z,22.37
2017-12-22T06:26:02.687Z,22.58
2017-12-22T06:27:05.135Z,20.42
2017-12-22T06:28:07.585Z,21.90
2017-12-22T06:29:10.046Z,21.77
2017-12-22T06:30:12.504Z,21.30
2017-12-22T06:31:14.983Z,22.70
2017-12-22T06:32:18.238Z,23.45
2017-12-22T06:33:20.726Z,23.90
2017-12-22T06:34:23.191Z,19.30
2017-12-22T06:35:25.686Z,23.12
2017-12-22T06:36:28.954Z,22.50
2017-12-22T06:37:32.186Z,22.65
2017-12-22T06:38:35.420Z,23.60
2017-12-22T06:39:38.626Z,19.70
2017-12-22T06:40:41.106Z,22.67
2017-12-22T06:41:43.634Z,23.75
2017-12-22T06:42:46.094Z,23.58
2017-12-22T06:43:48.557Z,19.98
2017-12-22T06:44:51.793Z,17.90
2017-12-22T06:45:54.265Z,21.35
2017-12-22T06:46:56.751Z,20.45
2017-12-22T06:47:59.977Z,21.65
2017-12-22T06:49:02.463Z,19.95
2017-12-22T06:50:04.924Z,19.37
2017-12-22T06:51:07.395Z,26.30
2017-12-22T06:52:09.945Z,19.95
2017-12-22T06:53:12.381Z,17.42
2017-12-22T06:54:14.828Z,19.58
2017-12-22T06:55:17.286Z,19.77
2017-12-22T06:56:19.770Z,18.20
2017-12-22T06:57:22.251Z,17.50
2017-12-22T06:58:24.766Z,19.60
2017-12-22T06:59:27.268Z,18.52
2017-12-22T07:00:30.496Z,16.48
2017-12-22T07:01:32.962Z,19.02
2017-12-22T07:02:35.440Z,14.80
2017-12-22T07:03:37.902Z,21.27
2017-12-22T07:04:40.362Z,20.35
2017-12-22T07:05:42.850Z,16.87
2017-12-22T07:06:46.057Z,20.80
2017-12-22T07:07:48.541Z,18.15
2017-12-22T07:08:50.990Z,20.30
2017-12-22T07:09:53.442Z,24.73
2017-12-22T07:10:55.898Z,20.12
2017-12-22T07:11:58.373Z,18.10
2017-12-22T07:13:00.843Z,16.83
2017-12-22T07:14:03.308Z,20.60
2017-12-22T07:15:05.785Z,23.33
2017-12-22T07:16:08.237Z,20.80
2017-12-22T07:17:10.686Z,18.55
2017-12-22T07:18:13.173Z,18.50
2017-12-22T07:19:15.631Z,20.67
2017-12-22T07:20:18.099Z,20.10
2017-12-22T07:21:21.324Z,18.30
2017-12-22T07:22:23.783Z,25.62
2017-12-22T07:23:26.253Z,20.48
2017-12-22T07:24:28.721Z,20.65
2017-12-22T07:25:32.007Z,19.50
2017-12-22T07:26:34.425Z,21.10
2017-12-22T07:27:36.885Z,16.67
2017-12-22T07:28:39.357Z,24.02
2017-12-22T07:29:41.847Z,17.65
2017-12-22T07:30:44.302Z,18.50
2017-12-22T07:31:46.754Z,17.95
2017-12-22T07:32:49.257Z,20.65
2017-12-22T07:33:51.784Z,17.25
2017-12-22T07:34:54.283Z,19.33
2017-12-22T07:35:57.630Z,19.50
2017-12-22T07:37:00.146Z,17.60
2017-12-22T07:38:03.384Z,21.20
2017-12-22T07:39:05.891Z,24.20
2017-12-22T07:40:08.451Z,22.35
2017-12-22T07:41:11.799Z,19.55
2017-12-22T07:42:14.328Z,19.25
2017-12-22T07:43:17.539Z,17.65
2017-12-22T07:44:20.096Z,25.45
2017-12-22T07:45:22.683Z,25.10
2017-12-22T07:46:25.144Z,18.98
2017-12-22T07:47:28.419Z,20.58
2017-12-22T07:48:30.901Z,17.73
2017-12-22T07:49:34.142Z,17.05
2017-12-22T07:50:36.600Z,19.05
2017-12-22T07:51:39.058Z,21.00
2017-12-22T07:52:41.522Z,22.17
2017-12-22T07:53:44.781Z,22.13
2017-12-22T07:54:47.265Z,19.85
2017-12-22T07:55:49.765Z,21.45
2017-12-22T07:56:52.225Z,16.55
2017-12-22T07:57:54.689Z,22.83
2017-12-22T07:58:57.211Z,23.73
2017-12-22T07:59:59.668Z,21.42
2017-12-22T08:01:02.116Z,18.75
2017-12-22T08:02:04.570Z,20.20
2017-12-22T08:03:07.037Z,20.48
2017-12-22T08:04:09.542Z,18.60
2017-12-22T08:05:12.126Z,22.73
2017-12-22T08:06:15.352Z,26.67
2017-12-22T08:07:17.802Z,18.75
2017-12-22T08:08:21.040Z,20.37
2017-12-22T08:09:23.518Z,21.55
2017-12-22T08:10:25.985Z,23.55
2017-12-22T08:11:29.233Z,27.58
2017-12-22T08:12:32.472Z,22.42
2017-12-22T08:13:35.707Z,23.02
2017-12-22T08:14:38.187Z,22.45
2017-12-22T08:15:40.650Z,24.67
2017-12-22T08:16:43.137Z,19.75
2017-12-22T08:17:45.609Z,20.48
2017-12-22T08:18:48.822Z,21.08
2017-12-22T08:19:51.314Z,22.62
2017-12-22T08:20:53.785Z,19.90
2017-12-22T08:21:56.246Z,28.12
2017-12-22T08:22:59.469Z,20.73
2017-12-22T08:24:01.922Z,24.42
2017-12-22T08:25:04.408Z,19.62
2017-12-22T08:26:06.862Z,17.98
2017-12-22T08:27:09.328Z,21.70
2017-12-22T08:28:11.778Z,24.77
2017-12-22T08:29:14.260Z,19.77
2017-12-22T08:30:16.744Z,19.42
2017-12-22T08:31:19.969Z,23.00
2017-12-22T08:32:22.428Z,25.98
2017-12-22T08:33:25.649Z,22.08
2017-12-22T08:34:28.864Z,21.55
2017-12-22T08:35:31.445Z,19.98
2017-12-22T08:36:33.921Z,21.58
2017-12-22T08:37:36.391Z,20.42
2017-12-22T08:38:38.843Z,18.52
2017-12-22T08:39:41.357Z,20.25
2017-12-22T08:40:43.835Z,20.70
2017-12-22T08:41:46.299Z,20.08
2017-12-22T08:42:48.806Z,21.58
2017-12-22T08:43:52.045Z,21.35
2017-12-22T08:44:54.506Z,18.05
2017-12-22T08:45:56.969Z,18.70
2017-12-22T08:46:59.430Z,23.25
2017-12-22T08:48:02.638Z,19.77
2017-12-22T08:49:05.130Z,23.27
2017-12-22T08:50:07.605Z,22.27
2017-12-22T08:51:10.816Z,20.30
2017-12-22T08:52:13.290Z,24.75
2017-12-22T08:53:15.758Z,18.02
2017-12-22T08:54:18.219Z,17.33
2017-12-22T08:55:21.445Z,20.42
2017-12-22T08:56:23.938Z,19.20
2017-12-22T08:57:26.402Z,17.87
2017-12-22T08:58:28.865Z,18.92
2017-12-22T08:59:31.329Z,19.27
2017-12-22T09:00:33.793Z,22.00
2017-12-22T09:01:37.050Z,20.42
2017-12-22T09:02:39.518Z,18.90
2017-12-22T09:03:41.977Z,21.10
2017-12-22T09:04:45.302Z,19.75
2017-12-22T09:05:47.758Z,15.90
2017-12-22T09:06:50.974Z,17.77
2017-12-22T09:07:53.478Z,17.85
2017-12-22T09:08:55.921Z,20.50
2017-12-22T09:09:58.377Z,21.77
2017-12-22T09:11:00.835Z,16.62
2017-12-22T09:12:03.326Z,17.75
2017-12-22T09:13:06.566Z,16.62
2017-12-22T09:14:09.777Z,21.40
2017-12-22T09:15:12.234Z,20.80
2017-12-22T09:16:14.698Z,24.40
2017-12-22T09:17:17.225Z,24.40
2017-12-22T09:18:19.831Z,20.10
2017-12-22T09:19:22.334Z,24.20
2017-12-22T09:20:25.572Z,19.87
2017-12-22T09:21:28.802Z,18.90
2017-12-22T09:22:32.023Z,17.40
2017-12-22T09:23:34.606Z,23.75
2017-12-22T09:24:37.176Z,23.12
2017-12-22T09:25:39.635Z,21.05
2017-12-22T09:26:42.873Z,19.75
2017-12-22T09:27:46.108Z,17.00
2017-12-22T09:28:49.337Z,20.27
2017-12-22T09:29:51.831Z,20.55
2017-12-22T09:30:54.310Z,21.80
2017-12-22T09:31:56.863Z,16.85
2017-12-22T09:32:59.325Z,20.70
2017-12-22T09:34:01.808Z,18.45
2017-12-22T09:35:04.294Z,21.02
2017-12-22T09:36:06.746Z,19.02
2017-12-22T09:37:09.369Z,29.37
2017-12-22T09:38:11.830Z,22.05
2017-12-22T09:39:14.290Z,18.75
2017-12-22T09:40:17.517Z,17.83
2017-12-22T09:41:19.979Z,17.67
2017-12-22T09:42:23.218Z,22.73
2017-12-22T09:43:26.385Z,24.08
2017-12-22T09:44:28.846Z,18.00
2017-12-22T09:45:31.312Z,17.55
2017-12-22T09:46:34.541Z,18.50
2017-12-22T09:47:37.925Z,22.17
2017-12-22T09:48:40.442Z,20.45
2017-12-22T09:49:42.922Z,18.60
2017-12-22T09:50:45.426Z,20.35
2017-12-22T09:51:47.885Z,17.80
2017-12-22T09:52:51.094Z,22.55
2017-12-22T09:53:53.598Z,16.17
2017-12-22T09:54:56.106Z,21.37
2017-12-22T09:55:58.565Z,17.70
2017-12-22T09:57:01.031Z,19.30
2017-12-22T09:58:03.490Z,22.50
2017-12-22T09:59:05.963Z,18.12
2017-12-22T10:00:08.410Z,18.33
2017-12-22T10:01:11.629Z,21.55
2017-12-22T10:02:14.086Z,16.25
2017-12-22T10:03:16.538Z,23.40
2017-12-22T10:04:19.028Z,19.92
2017-12-22T10:05:22.260Z,18.75
2017-12-22T10:06:25.521Z,16.87
2017-12-22T10:07:28.762Z,19.25
2017-12-22T10:08:31.214Z,19.83
2017-12-22T10:09:34.820Z,19.15
2017-12-22T10:10:38.048Z,18.00
2017-12-22T10:11:40.499Z,18.85
2017-12-22T10:12:42.974Z,18.60
2017-12-22T10:13:45.437Z,18.67
2017-12-22T10:14:48.680Z,18.92
2017-12-22T10:15:51.893Z,14.93
2017-12-22T10:16:54.355Z,19.50
2017-12-22T10:17:57.591Z,15.25
2017-12-22T10:19:00.817Z,15.50
2017-12-22T10:20:03.311Z,15.05
2017-12-22T10:21:05.780Z,17.73
2017-12-22T10:22:08.989Z,18.17
2017-12-22T10:23:11.497Z,19.12
2017-12-22T10:24:13.962Z,21.62
2017-12-22T10:25:16.438Z,18.15
2017-12-22T10:26:18.896Z,15.82
2017-12-22T10:27:21.377Z,18.45
2017-12-22T10:28:23.850Z,19.45
2017-12-22T10:29:26.330Z,14.65
2017-12-22T10:30:28.797Z,22.52
2017-12-22T10:31:31.309Z,19.37
2017-12-22T10:32:33.784Z,17.95
2017-12-22T10:33:36.238Z,19.83
2017-12-22T10:34:38.705Z,23.92
2017-12-22T10:35:41.173Z,19.35
2017-12-22T10:36:43.664Z,19.73
2017-12-22T10:37:46.941Z,18.50
2017-12-22T10:38:49.489Z,18.85
2017-12-22T10:39:51.973Z,17.35
2017-12-22T10:40:54.463Z,20.92
2017-12-22T10:41:56.932Z,18.33
2017-12-22T10:42:59.590Z,17.73
2017-12-22T10:44:02.046Z,18.15
2017-12-22T10:45:04.510Z,16.95
2017-12-22T10:46:06.967Z,21.25
2017-12-22T10:47:09.529Z,18.23
2017-12-22T10:48:12.802Z,18.48
2017-12-22T10:49:15.408Z,18.85
2017-12-22T10:50:17.871Z,18.77
2017-12-22T10:51:20.313Z,16.15
2017-12-22T10:52:22.783Z,17.00
2017-12-22T10:53:25.994Z,17.55
2017-12-22T10:54:28.451Z,17.70
2017-12-22T10:55:31.709Z,17.87
2017-12-22T10:56:34.170Z,18.30
2017-12-22T10:57:36.636Z,19.00
2017-12-22T10:58:39.854Z,21.58
2017-12-22T10:59:42.458Z,14.73
2017-12-22T11:00:44.972Z,22.23
2017-12-22T11:01:47.443Z,22.85
2017-12-22T11:02:49.915Z,17.05
2017-12-22T11:03:52.374Z,15.40
2017-12-22T11:04:54.846Z,17.08
2017-12-22T11:05:58.014Z,23.65
2017-12-22T11:07:00.541Z,15.40
2017-12-22T11:08:03.005Z,20.08
2017-12-22T11:09:05.475Z,21.33
2017-12-22T11:10:07.937Z,17.65
2017-12-22T11:11:10.397Z,18.48
2017-12-22T11:12:13.629Z,15.80
2017-12-22T11:13:16.097Z,18.87
2017-12-22T11:14:18.561Z,17.67
2017-12-22T11:15:21.029Z,23.02
2017-12-22T11:16:23.476Z,20.90
2017-12-22T11:17:25.993Z,22.27
2017-12-22T11:18:28.498Z,23.30
2017-12-22T11:19:31.705Z,23.02
2017-12-22T11:20:34.160Z,18.83
2017-12-22T11:21:37.385Z,23.05
2017-12-22T11:22:39.843Z,21.77
2017-12-22T11:23:42.317Z,18.58
2017-12-22T11:24:44.786Z,18.67
2017-12-22T11:25:47.246Z,16.58
2017-12-22T11:26:49.733Z,17.92
2017-12-22T11:27:52.196Z,19.85
2017-12-22T11:28:54.654Z,21.83
2017-12-22T11:29:57.118Z,18.80
2017-12-22T11:30:59.566Z,24.65
2017-12-22T11:32:02.090Z,16.98
2017-12-22T11:33:04.547Z,16.05
2017-12-22T11:34:07.000Z,19.50
2017-12-22T11:35:10.217Z,18.25
2017-12-22T11:36:12.680Z,15.52
2017-12-22T11:37:15.238Z,15.50
2017-12-22T11:38:17.730Z,22.00
2017-12-22T11:39:20.975Z,17.05
2017-12-22T11:40:23.443Z,17.85
2017-12-22T11:41:26.668Z,15.27
2017-12-22T11:42:29.128Z,13.38
2017-12-22T11:43:31.608Z,16.15
2017-12-22T11:44:34.095Z,16.65
2017-12-22T11:45:37.310Z,18.87
2017-12-22T11:46:39.754Z,17.20
2017-12-22T11:47:42.989Z,16.70
2017-12-22T11:48:45.453Z,17.55
2017-12-22T11:49:47.949Z,16.73
2017-12-22T11:50:51.171Z,22.65
2017-12-22T11:51:53.625Z,18.40
2017-12-22T11:52:56.908Z,16.08
2017-12-22T11:53:59.360Z,12.15
2017-12-22T11:55:01.847Z,18.00
2017-12-22T11:56:04.336Z,14.18
2017-12-22T11:57:07.578Z,22.23
2017-12-22T11:58:10.809Z,17.98
2017-12-22T11:59:14.849Z,14.68
2017-12-22T12:00:17.867Z,15.55
2017-12-22T12:01:20.402Z,14.87
2017-12-22T12:02:22.911Z,15.30
2017-12-22T12:03:25.360Z,14.82
2017-12-22T12:04:27.808Z,11.68
2017-12-22T12:05:30.277Z,13.07
2017-12-22T12:06:32.740Z,12.68
2017-12-22T12:07:35.209Z,15.68
2017-12-22T12:08:37.654Z,12.35
2017-12-22T12:09:40.139Z,25.27
2017-12-22T12:10:43.375Z,16.85
2017-12-22T12:11:45.881Z,14.85
2017-12-22T12:12:48.387Z,14.20
2017-12-22T12:13:50.847Z,12.37
2017-12-22T12:14:53.632Z,11.85
2017-12-22T12:15:56.121Z,12.52
2017-12-22T12:16:59.384Z,14.77
2017-12-22T12:18:01.829Z,19.20
2017-12-22T12:19:04.294Z,17.20
2017-12-22T12:20:06.787Z,15.23
2017-12-22T12:21:09.337Z,15.85
2017-12-22T12:22:11.796Z,17.23
2017-12-22T12:23:14.254Z,12.43
2017-12-22T12:24:16.700Z,12.70
2017-12-22T12:25:19.193Z,13.05
2017-12-22T12:26:21.647Z,12.63
2017-12-22T12:27:24.118Z,13.93
2017-12-22T12:28:27.363Z,14.10
2017-12-22T12:29:29.818Z,11.95
2017-12-22T12:30:32.281Z,13.70
2017-12-22T12:31:34.746Z,11.35
2017-12-22T12:32:37.247Z,16.60
2017-12-22T12:33:40.541Z,12.50
2017-12-22T12:34:43.045Z,16.05
2017-12-22T12:35:45.490Z,13.52
2017-12-22T12:36:47.983Z,18.77
2017-12-22T12:37:50.454Z,16.27
2017-12-22T12:38:52.914Z,14.43
2017-12-22T12:39:56.125Z,16.08
2017-12-22T12:40:58.570Z,15.65
2017-12-22T12:42:01.079Z,15.40
2017-12-22T12:43:03.559Z,13.00
2017-12-22T12:44:06.026Z,14.45
2017-12-22T12:45:08.566Z,15.63
2017-12-22T12:46:11.033Z,16.02
2017-12-22T12:47:13.518Z,16.90
2017-12-22T12:48:15.982Z,11.55
2017-12-22T12:49:18.453Z,12.57
2017-12-22T12:50:21.665Z,14.07
2017-12-22T12:51:24.141Z,12.52
2017-12-22T12:52:26.596Z,15.15
2017-12-22T12:53:29.069Z,13.62
2017-12-22T12:54:31.521Z,12.52
2017-12-22T12:55:34.758Z,12.55
2017-12-22T12:56:37.997Z,15.75
2017-12-22T12:57:41.232Z,11.43
2017-12-22T12:58:43.700Z,10.65
2017-12-22T12:59:46.197Z,15.10
2017-12-22T13:00:49.453Z,11.88
2017-12-22T13:01:51.939Z,9.98
2017-12-22T13:02:54.457Z,11.55
2017-12-22T13:03:56.996Z,12.63
2017-12-22T13:04:59.433Z,13.27
2017-12-22T13:06:02.641Z,11.30
2017-12-22T13:07:05.104Z,10.73
2017-12-22T13:08:08.326Z,10.68
2017-12-22T13:09:11.197Z,10.75
2017-12-22T13:10:13.701Z,13.05
2017-12-22T13:11:16.975Z,9.30
2017-12-22T13:12:19.449Z,17.17
2017-12-22T13:13:22.292Z,13.23
2017-12-22T13:14:24.769Z,11.68
2017-12-22T13:15:27.507Z,12.48
2017-12-22T13:16:30.040Z,9.80
2017-12-22T13:17:33.878Z,9.20
2017-12-22T13:18:38.084Z,9.35
2017-12-22T13:19:40.594Z,10.95
2017-12-22T13:20:43.142Z,9.48
2017-12-22T13:21:45.604Z,13.18
2017-12-22T13:22:48.150Z,9.88
2017-12-22T13:23:51.487Z,9.55
2017-12-22T13:24:53.944Z,9.80
2017-12-22T13:25:56.404Z,19.27
2017-12-22T13:26:59.628Z,14.02